createdAt,value
2019-02-07T00:00:56.064Z,45.67
2019-02-07T00:03:21.995Z,47.83
2019-02-07T00:05:47.928Z,51.77
2019-02-07T00:08:13.851Z,47.73
2019-02-07T00:10:39.698Z,54.33
2019-02-07T00:13:05.534Z,46.93
2019-02-07T00:18:04.029Z,46.93
2019-02-07T00:20:29.851Z,35.20
2019-02-07T00:22:55.716Z,41.77
2019-02-07T00:25:21.551Z,49.57
2019-02-07T00:27:47.679Z,56.53
2019-02-07T00:30:55.172Z,45.43
2019-02-07T00:33:21.094Z,55.80
2019-02-07T00:35:46.909Z,95.67
2019-02-07T00:38:12.746Z,49.30
2019-02-07T00:40:38.558Z,52.77
2019-02-07T00:43:04.500Z,37.77
2019-02-07T00:45:30.348Z,48.53
2019-02-07T00:47:56.174Z,53.70
2019-02-07T00:50:21.995Z,51.40
2019-02-07T00:52:47.826Z,47.40
2019-02-07T00:55:55.299Z,43.60
2019-02-07T00:58:21.245Z,39.33
2019-02-07T01:00:47.288Z,39.90
2019-02-07T01:03:13.185Z,38.10
2019-02-07T01:05:40.902Z,40.87
2019-02-07T01:08:06.727Z,39.90
2019-02-07T01:10:32.653Z,41.03
2019-02-07T01:12:58.501Z,40.70
2019-02-07T01:16:05.986Z,41.13
2019-02-07T01:18:31.820Z,35.43
2019-02-07T01:20:57.638Z,32.10
2019-02-07T01:23:23.475Z,35.13
2019-02-07T01:25:49.299Z,36.27
2019-02-07T01:28:15.262Z,41.40
2019-02-07T01:30:41.200Z,32.67
2019-02-07T01:33:07.030Z,37.97
2019-02-07T01:35:34.879Z,41.77
2019-02-07T01:38:00.719Z,40.00
2019-02-07T01:40:26.565Z,37.43
2019-02-07T01:42:52.412Z,33.33
2019-02-07T01:45:59.931Z,34.93
2019-02-07T01:48:25.853Z,29.87
2019-02-07T01:50:51.773Z,31.07
2019-02-07T01:53:17.589Z,34.90
2019-02-07T01:55:43.446Z,29.63
2019-02-07T01:58:09.273Z,31.47
2019-02-07T02:00:35.529Z,34.03
2019-02-07T02:03:01.347Z,36.83
2019-02-07T02:05:29.071Z,26.80
2019-02-07T02:07:55.113Z,28.07
2019-02-07T02:11:02.610Z,36.30
2019-02-07T02:13:28.835Z,30.17
2019-02-07T02:15:54.649Z,37.07
2019-02-07T02:18:27.712Z,32.70
2019-02-07T02:20:53.753Z,34.60
2019-02-07T02:23:19.678Z,23.97
2019-02-07T02:25:45.500Z,27.73
2019-02-07T02:28:11.353Z,34.90
2019-02-07T02:30:37.188Z,35.53
2019-02-07T02:33:03.306Z,30.90
2019-02-07T02:35:29.150Z,32.77
2019-02-07T02:37:54.983Z,28.00
2019-02-07T02:40:20.916Z,32.37
2019-02-07T02:43:28.406Z,42.70
2019-02-07T02:45:54.246Z,29.67
2019-02-07T02:49:01.724Z,32.03
2019-02-07T02:51:27.563Z,34.17
2019-02-07T02:56:26.887Z,34.63
2019-02-07T02:58:52.713Z,27.53
2019-02-07T03:01:26.319Z,30.20
2019-02-07T03:09:34.610Z,39.10
2019-02-07T03:12:21.016Z,40.60
2019-02-07T03:17:54.186Z,41.57
2019-02-07T03:20:39.907Z,48.37
2019-02-07T03:23:25.599Z,43.90
2019-02-07T03:26:11.759Z,44.30
2019-02-07T03:31:44.764Z,39.90
2019-02-07T03:34:30.470Z,47.20
2019-02-07T03:37:16.174Z,46.00
2019-02-07T03:40:01.869Z,37.20
2019-02-07T03:42:47.572Z,40.40
2019-02-07T03:45:33.365Z,45.47
2019-02-07T03:48:19.085Z,43.43
2019-02-07T03:51:04.872Z,43.70
2019-02-07T03:53:50.590Z,43.77
2019-02-07T03:56:36.280Z,37.20
2019-02-07T03:59:22.004Z,51.57
2019-02-07T04:02:07.722Z,30.57
2019-02-07T04:04:53.422Z,40.13
2019-02-07T04:07:39.127Z,33.03
2019-02-07T04:10:46.588Z,41.03
2019-02-07T04:13:32.566Z,39.90
2019-02-07T04:16:18.254Z,37.30
2019-02-07T04:19:04.077Z,33.80
2019-02-07T04:27:10.779Z,35.87
2019-02-07T04:29:56.494Z,37.90
2019-02-07T04:32:42.513Z,32.40
2019-02-07T04:38:01.952Z,40.60
2019-02-07T04:40:47.851Z,36.07
2019-02-07T04:43:33.539Z,26.20
2019-02-07T04:48:52.762Z,28.33
2019-02-07T04:51:38.488Z,25.13
2019-02-07T04:54:24.510Z,22.87
2019-02-07T04:57:10.224Z,33.30
2019-02-07T04:59:55.973Z,26.67
2019-02-07T05:02:41.725Z,22.77
2019-02-07T05:05:27.557Z,31.33
2019-02-07T05:08:13.362Z,34.23
2019-02-07T05:10:59.088Z,33.43
2019-02-07T05:13:44.814Z,40.50
2019-02-07T05:16:39.176Z,29.60
2019-02-07T05:19:18.169Z,25.47
2019-02-07T05:22:04.269Z,27.17
2019-02-07T05:24:49.972Z,32.60
2019-02-07T05:27:35.687Z,25.80
2019-02-07T05:30:21.405Z,28.10
2019-02-07T05:33:07.094Z,27.47
2019-02-07T05:35:53.096Z,31.30
2019-02-07T05:41:12.186Z,35.03
2019-02-07T05:46:35.727Z,43.63
2019-02-07T05:49:21.439Z,34.47
2019-02-07T05:54:54.499Z,37.63
2019-02-07T05:57:40.603Z,40.67
2019-02-07T06:00:48.094Z,31.23
2019-02-07T06:03:33.859Z,44.47
2019-02-07T06:06:19.561Z,32.53
2019-02-07T06:09:05.273Z,43.47
2019-02-07T06:11:50.978Z,52.90
2019-02-07T06:14:36.719Z,42.07
2019-02-07T06:17:22.419Z,48.50
2019-02-07T06:22:45.913Z,48.43
2019-02-07T06:25:31.710Z,37.23
2019-02-07T06:28:17.431Z,44.40
2019-02-07T06:33:50.691Z,41.50
2019-02-07T06:36:36.419Z,45.60
2019-02-07T06:39:43.904Z,46.33
2019-02-07T06:47:51.201Z,40.70
2019-02-07T06:50:36.956Z,56.33
2019-02-07T06:53:22.980Z,29.90
2019-02-07T06:56:08.700Z,49.83
2019-02-07T06:58:55.228Z,52.17
2019-02-07T07:04:28.445Z,29.67
2019-02-07T07:10:01.663Z,37.73
2019-02-07T07:15:34.751Z,30.50
2019-02-07T07:21:07.926Z,35.37
2019-02-07T07:23:53.745Z,43.73
2019-02-07T07:26:39.604Z,34.70
2019-02-07T07:29:25.660Z,45.67
2019-02-07T07:32:11.476Z,27.30
2019-02-07T07:34:57.185Z,29.63
2019-02-07T07:37:42.927Z,29.83
2019-02-07T07:40:50.432Z,30.47
2019-02-07T07:43:36.238Z,35.77
2019-02-07T07:49:10.576Z,29.50
2019-02-07T07:51:56.344Z,34.60
2019-02-07T07:54:42.459Z,32.80
2019-02-07T07:57:26.888Z,38.63
2019-02-07T08:00:11.459Z,32.40
2019-02-07T08:02:45.025Z,31.90
2019-02-07T08:05:29.729Z,38.23
2019-02-07T08:08:00.264Z,37.47
2019-02-07T08:10:44.495Z,42.50
2019-02-07T08:13:21.118Z,44.97
2019-02-07T08:15:57.524Z,42.80
2019-02-07T08:18:28.009Z,42.27
2019-02-07T08:21:12.199Z,47.97
2019-02-07T08:23:44.258Z,60.67
2019-02-07T08:26:18.062Z,38.17
2019-02-07T08:29:02.616Z,43.23
2019-02-07T08:31:33.222Z,51.57
2019-02-07T08:34:06.730Z,59.20
2019-02-07T08:36:34.493Z,45.77
2019-02-07T08:39:11.411Z,45.97
2019-02-07T08:41:55.677Z,57.30
2019-02-07T08:44:39.828Z,46.60
2019-02-07T08:47:11.178Z,43.00
2019-02-07T08:49:45.039Z,51.60
2019-02-07T08:52:21.544Z,38.70
2019-02-07T08:55:05.856Z,37.43
2019-02-07T08:57:48.511Z,42.97
2019-02-07T09:00:34.465Z,49.63
2019-02-07T09:03:20.491Z,34.80
2019-02-07T09:05:48.222Z,58.97
2019-02-07T09:08:31.144Z,48.33
2019-02-07T09:11:07.775Z,51.50
2019-02-07T09:13:53.830Z,47.57
2019-02-07T09:16:39.822Z,53.60
2019-02-07T09:22:13.331Z,42.23
2019-02-07T09:30:20.390Z,45.00
2019-02-07T09:33:06.095Z,41.30
2019-02-07T09:35:52.024Z,41.00
2019-02-07T09:38:37.767Z,40.70
2019-02-07T09:44:11.229Z,44.03
2019-02-07T09:49:44.586Z,45.13
2019-02-07T09:52:30.288Z,53.77
2019-02-07T10:00:48.431Z,38.03
2019-02-07T10:03:34.186Z,41.50
2019-02-07T10:09:07.379Z,46.60
2019-02-07T10:11:53.058Z,39.03
2019-02-07T10:14:39.579Z,42.47
2019-02-07T10:17:25.291Z,39.37
2019-02-07T10:20:11.009Z,42.43
2019-02-07T10:22:56.733Z,50.73
2019-02-07T10:25:42.469Z,46.23
2019-02-07T10:28:28.641Z,52.53
2019-02-07T10:33:48.193Z,53.87
2019-02-07T10:36:34.109Z,49.73
2019-02-07T10:39:19.819Z,51.17
2019-02-07T10:42:05.561Z,42.40
2019-02-07T10:44:51.288Z,48.07
2019-02-07T10:47:37.147Z,43.13
2019-02-07T10:50:44.683Z,51.80
2019-02-07T10:56:17.774Z,48.10
2019-02-07T10:58:45.852Z,43.40
2019-02-07T11:01:29.994Z,37.63
2019-02-07T11:04:15.897Z,50.27
2019-02-07T11:07:01.625Z,48.63
2019-02-07T11:09:47.650Z,37.20
2019-02-07T11:12:33.378Z,49.87
2019-02-07T11:15:19.093Z,41.73
2019-02-07T11:18:04.957Z,42.43
2019-02-07T11:20:50.645Z,48.47
2019-02-07T11:23:36.723Z,41.27
2019-02-07T11:26:44.196Z,38.60
2019-02-07T11:32:03.887Z,45.57
2019-02-07T11:34:49.751Z,56.20
2019-02-07T11:37:35.479Z,38.50
2019-02-07T11:40:21.361Z,46.50
2019-02-07T11:43:07.142Z,44.33
2019-02-07T11:45:52.881Z,40.43
2019-02-07T11:49:06.930Z,42.53
2019-02-07T11:51:48.037Z,35.37
2019-02-07T11:54:33.781Z,54.97
2019-02-07T12:07:55.074Z,30.17
2019-02-07T12:10:40.802Z,41.33
2019-02-07T12:13:26.696Z,46.40
2019-02-07T12:19:00.176Z,36.70
2019-02-07T12:24:33.306Z,38.60
2019-02-07T12:27:19.017Z,31.70
2019-02-07T12:32:38.689Z,40.90
2019-02-07T12:35:46.212Z,36.60
2019-02-07T12:38:31.919Z,35.63
2019-02-07T12:43:51.135Z,37.93
2019-02-07T12:46:36.881Z,34.90
2019-02-07T12:49:29.224Z,46.10
2019-02-07T12:52:32.244Z,31.93
2019-02-07T12:58:05.677Z,42.13
2019-02-07T13:01:13.244Z,42.63
2019-02-07T13:06:46.392Z,36.63
2019-02-07T13:09:53.901Z,44.77
2019-02-07T13:12:39.754Z,46.53
2019-02-07T13:15:47.250Z,43.30
2019-02-07T13:18:33.161Z,45.80
2019-02-07T13:21:18.946Z,40.40
2019-02-07T13:24:04.663Z,42.10
2019-02-07T13:29:37.883Z,38.93
2019-02-07T13:32:45.407Z,37.83
2019-02-07T13:35:31.383Z,42.33
2019-02-07T13:46:05.635Z,45.63
2019-02-07T13:48:51.446Z,43.83
2019-02-07T13:59:39.660Z,47.03
2019-02-07T14:02:25.451Z,47.40
2019-02-07T14:05:11.719Z,45.20
2019-02-07T14:07:57.443Z,50.00
2019-02-07T14:10:43.162Z,42.10
2019-02-07T14:13:29.015Z,43.80
2019-02-07T14:18:52.060Z,50.13
2019-02-07T14:21:37.883Z,50.30
2019-02-07T14:29:34.799Z,60.00
2019-02-07T14:32:20.689Z,54.03
2019-02-07T14:35:06.442Z,58.70
2019-02-07T14:40:39.613Z,43.33
2019-02-07T14:46:12.867Z,50.90
2019-02-07T14:48:39.054Z,58.70
2019-02-07T14:51:05.124Z,57.50
2019-02-07T14:53:30.942Z,58.47
2019-02-07T14:55:56.808Z,57.80
2019-02-07T14:58:22.789Z,48.57
2019-02-07T15:00:48.665Z,45.37
2019-02-07T15:06:21.949Z,49.20
2019-02-07T15:08:47.909Z,50.73
2019-02-07T15:11:13.904Z,52.73
2019-02-07T15:13:39.848Z,47.00
2019-02-07T15:16:05.873Z,57.97
2019-02-07T15:18:31.868Z,73.43
2019-02-07T15:20:57.800Z,52.10
2019-02-07T15:23:23.674Z,50.97
2019-02-07T15:25:49.545Z,55.10
2019-02-07T15:28:15.622Z,49.57
2019-02-07T15:30:41.576Z,51.80
2019-02-07T15:33:07.724Z,63.00
2019-02-07T15:36:16.971Z,53.07
2019-02-07T15:38:42.939Z,53.97
2019-02-07T15:41:08.979Z,55.43
2019-02-07T15:43:34.987Z,47.30
2019-02-07T15:46:01.149Z,66.63
2019-02-07T15:48:27.007Z,59.40
2019-02-07T15:50:52.856Z,53.03
2019-02-07T15:53:18.785Z,62.30
2019-02-07T15:55:44.696Z,60.90
2019-02-07T15:58:10.630Z,58.10
2019-02-07T16:00:56.336Z,51.63
2019-02-07T16:03:42.165Z,48.70
2019-02-07T16:06:08.175Z,55.53
2019-02-07T16:08:34.013Z,64.30
2019-02-07T16:10:59.974Z,56.23
2019-02-07T16:13:25.798Z,49.40
2019-02-07T16:16:33.392Z,64.53
2019-02-07T16:18:59.236Z,58.70
2019-02-07T16:21:25.083Z,51.43
2019-02-07T16:23:52.817Z,57.67
2019-02-07T16:26:18.664Z,47.17
2019-02-07T16:28:44.617Z,61.70
2019-02-07T16:34:45.971Z,50.93
2019-02-07T16:37:11.810Z,61.77
2019-02-07T16:39:37.710Z,54.63
2019-02-07T16:44:37.975Z,63.70
2019-02-07T16:47:04.263Z,61.60
2019-02-07T16:49:30.297Z,59.27
2019-02-07T16:51:56.558Z,51.47
2019-02-07T16:54:22.755Z,46.30
2019-02-07T16:56:48.803Z,52.33
2019-02-07T16:59:14.906Z,56.60
2019-02-07T17:01:41.156Z,46.70
2019-02-07T17:04:07.360Z,51.90
2019-02-07T17:06:33.396Z,59.20
2019-02-07T17:08:59.451Z,54.50
2019-02-07T17:11:25.450Z,59.17
2019-02-07T17:13:51.811Z,54.37
2019-02-07T17:16:18.067Z,57.97
2019-02-07T17:18:44.258Z,60.33
2019-02-07T17:21:12.563Z,68.00
2019-02-07T17:23:38.617Z,64.43
2019-02-07T17:26:04.723Z,67.23
2019-02-07T17:28:30.822Z,53.30
2019-02-07T17:30:56.889Z,64.43
2019-02-07T17:33:23.089Z,62.33
2019-02-07T17:35:50.183Z,58.87
2019-02-07T17:38:17.123Z,62.03
2019-02-07T17:40:43.231Z,75.23
2019-02-07T17:43:11.157Z,64.53
2019-02-07T17:45:37.428Z,65.37
2019-02-07T17:48:03.709Z,62.60
2019-02-07T17:50:49.782Z,61.93
2019-02-07T17:53:15.773Z,62.47
2019-02-07T17:55:41.702Z,64.67
2019-02-07T17:58:51.230Z,64.20
2019-02-07T18:01:17.326Z,71.13
2019-02-07T18:03:43.226Z,83.03
2019-02-07T18:08:59.042Z,61.07
2019-02-07T18:11:24.931Z,79.57
2019-02-07T18:13:50.823Z,66.70
2019-02-07T18:16:16.844Z,64.93
2019-02-07T18:18:43.112Z,85.43
2019-02-07T18:21:11.043Z,59.23
2019-02-07T18:23:37.221Z,71.87
2019-02-07T18:26:03.705Z,72.63
2019-02-07T18:28:29.838Z,71.83
2019-02-07T18:30:55.969Z,73.70
2019-02-07T18:33:21.969Z,69.50
2019-02-07T18:36:07.978Z,78.70
2019-02-07T18:38:33.820Z,71.90
2019-02-07T18:40:59.997Z,64.40
2019-02-07T18:43:26.092Z,60.43
2019-02-07T18:45:52.125Z,82.37
2019-02-07T18:48:18.187Z,62.10
2019-02-07T18:50:44.406Z,61.63
2019-02-07T18:53:10.505Z,64.80
2019-02-07T18:55:36.612Z,58.73
2019-02-07T18:58:44.178Z,66.23
2019-02-07T19:01:10.322Z,62.27
2019-02-07T19:03:36.241Z,60.57
2019-02-07T19:06:04.239Z,53.57
2019-02-07T19:08:30.192Z,64.03
2019-02-07T19:10:56.392Z,63.33
2019-02-07T19:13:22.520Z,71.37
2019-02-07T19:16:30.016Z,64.83
2019-02-07T19:18:55.982Z,68.47
2019-02-07T19:21:22.213Z,64.60
2019-02-07T19:23:48.348Z,70.93
2019-02-07T19:26:14.263Z,63.40
2019-02-07T19:28:40.177Z,62.27
2019-02-07T19:31:06.355Z,63.40
2019-02-07T19:33:32.579Z,56.10
2019-02-07T19:36:00.660Z,69.90
2019-02-07T19:38:26.718Z,57.73
2019-02-07T19:40:52.856Z,73.43
2019-02-07T19:43:18.817Z,62.87
2019-02-07T19:45:44.832Z,62.43
2019-02-07T19:48:10.898Z,65.47
2019-02-07T19:50:37.155Z,68.73
2019-02-07T19:53:03.549Z,68.40
2019-02-07T19:56:11.133Z,60.47
2019-02-07T19:58:37.253Z,67.67
2019-02-07T20:01:44.847Z,60.60
2019-02-07T20:04:11.025Z,82.57
2019-02-07T20:06:36.947Z,73.90
2019-02-07T20:09:44.501Z,71.57
2019-02-07T20:12:10.573Z,71.97
2019-02-07T20:14:36.441Z,71.57
2019-02-07T20:17:02.463Z,74.80
2019-02-07T20:19:28.733Z,85.80
2019-02-07T20:21:55.048Z,77.40
2019-02-07T20:24:21.201Z,77.93
2019-02-07T20:26:49.365Z,92.80
2019-02-07T20:31:47.496Z,103.33
2019-02-07T20:34:13.582Z,94.63
2019-02-07T20:36:39.517Z,77.70
2019-02-07T20:39:47.097Z,79.70
2019-02-07T20:42:13.275Z,68.17
2019-02-07T20:44:39.370Z,74.20
2019-02-07T20:47:05.284Z,81.47
2019-02-07T20:49:31.231Z,99.63
2019-02-07T20:52:12.137Z,86.93
2019-02-07T20:54:24.998Z,77.83
2019-02-07T20:56:53.406Z,64.10
2019-02-07T20:59:19.571Z,81.20
2019-02-07T21:01:45.877Z,81.23
2019-02-07T21:04:12.187Z,69.77
2019-02-07T21:06:38.174Z,72.00
2019-02-07T21:09:45.763Z,89.70
2019-02-07T21:12:11.724Z,84.37
2019-02-07T21:14:37.820Z,76.67
2019-02-07T21:17:04.046Z,74.40
2019-02-07T21:19:30.451Z,81.23
2019-02-07T21:21:56.309Z,123.10
2019-02-07T21:24:22.326Z,158.60
2019-02-07T21:26:48.471Z,100.10
2019-02-07T21:29:16.286Z,84.30
2019-02-07T21:31:42.457Z,67.53
2019-02-07T21:34:08.616Z,83.17
2019-02-07T21:36:34.578Z,92.77
2019-02-07T21:39:00.679Z,80.30
2019-02-07T21:41:26.836Z,95.37
2019-02-07T21:43:52.962Z,87.40
2019-02-07T21:46:19.143Z,86.90
2019-02-07T21:49:04.936Z,88.00
2019-02-07T21:54:06.547Z,85.57
2019-02-07T21:56:32.523Z,77.23
2019-02-07T21:58:58.550Z,72.33
2019-02-07T22:01:24.639Z,75.20
2019-02-07T22:03:50.788Z,66.77
2019-02-07T22:06:17.065Z,70.73
2019-02-07T22:08:43.288Z,83.90
2019-02-07T22:11:09.428Z,82.73
2019-02-07T22:13:35.302Z,107.27
2019-02-07T22:16:01.373Z,71.53
2019-02-07T22:18:27.398Z,85.67
2019-02-07T22:20:53.521Z,91.80
2019-02-07T22:23:39.311Z,72.30
2019-02-07T22:26:05.440Z,79.57
2019-02-07T22:28:31.334Z,67.37
2019-02-07T22:30:57.340Z,96.13
2019-02-07T22:33:23.589Z,91.70
2019-02-07T22:35:49.507Z,83.33
2019-02-07T22:38:15.494Z,77.17
2019-02-07T22:40:41.498Z,77.40
2019-02-07T22:43:07.751Z,75.80
2019-02-07T22:45:33.879Z,91.30
2019-02-07T22:47:59.878Z,76.83
2019-02-07T22:50:45.785Z,73.53
2019-02-07T22:53:11.927Z,93.70
2019-02-07T22:55:37.976Z,74.30
2019-02-07T22:58:05.952Z,82.40
2019-02-07T23:01:13.524Z,75.90
2019-02-07T23:03:39.504Z,77.13
2019-02-07T23:06:07.389Z,67.40
2019-02-07T23:08:53.232Z,76.70
2019-02-07T23:12:00.780Z,76.97
2019-02-07T23:14:26.742Z,73.77
2019-02-07T23:16:52.719Z,64.50
2019-02-07T23:19:18.949Z,78.03
2019-02-07T23:21:45.049Z,84.33
2019-02-07T23:24:11.203Z,74.53
2019-02-07T23:26:37.269Z,77.43
2019-02-07T23:29:05.217Z,62.30
2019-02-07T23:31:31.264Z,72.50
2019-02-07T23:33:57.366Z,73.10
2019-02-07T23:36:23.409Z,65.17
2019-02-07T23:38:49.592Z,65.60
2019-02-07T23:41:15.762Z,64.37
2019-02-07T23:43:46.066Z,65.63
2019-02-07T23:46:11.170Z,58.67
2019-02-07T23:48:37.929Z,64.70
2019-02-07T23:51:45.434Z,59.43
2019-02-07T23:54:11.660Z,61.37
2019-02-07T23:56:37.729Z,72.83
2019-02-07T23:59:05.742Z,62.57
